sensor_id;sensor_type;location;lat;lon;timestamp;temperature;humidity
3186;DHT22;1604;53.700;10.252;2023-01-19T00:00:15;0.10;99.90
3186;DHT22;1604;53.700;10.252;2023-01-19T00:03:17;0.20;99.90
3186;DHT22;1604;53.700;10.252;2023-01-19T00:06:19;0.30;99.90
3186;DHT22;1604;53.700;10.252;2023-01-19T00:09:22;0.30;99.90
3186;DHT22;1604;53.700;10.252;2023-01-19T00:12:25;0.20;99.90
3186;DHT22;1604;53.700;10.252;2023-01-19T00:15:27;0.20;99.90
3186;DHT22;1604;53.700;10.252;2023-01-19T00:18:29;0.40;99.90
3186;DHT22;1604;53.700;10.252;2023-01-19T00:21:31;0.40;99.90
3186;DHT22;1604;53.700;10.252;2023-01-19T00:24:34;0.40;99.90
3186;DHT22;1604;53.700;10.252;2023-01-19T00:27:36;0.40;99.90
3186;DHT22;1604;53.700;10.252;2023-01-19T00:30:38;0.40;99.90
3186;DHT22;1604;53.700;10.252;2023-01-19T00:33:40;0.50;99.90
3186;DHT22;1604;53.700;10.252;2023-01-19T00:36:46;0.50;99.90
3186;DHT22;1604;53.700;10.252;2023-01-19T00:39:49;0.60;99.90
3186;DHT22;1604;53.700;10.252;2023-01-19T00:42:54;0.70;99.90
3186;DHT22;1604;53.700;10.252;2023-01-19T00:45:56;0.70;99.90
3186;DHT22;1604;53.700;10.252;2023-01-19T00:48:57;0.60;99.90
3186;DHT22;1604;53.700;10.252;2023-01-19T00:51:59;0.60;99.90
3186;DHT22;1604;53.700;10.252;2023-01-19T00:55:03;0.60;99.90
3186;DHT22;1604;53.700;10.252;2023-01-19T00:58:06;0.70;99.90
3186;DHT22;1604;53.700;10.252;2023-01-19T01:01:08;0.60;99.90
3186;DHT22;1604;53.700;10.252;2023-01-19T01:04:10;0.70;99.90
3186;DHT22;1604;53.700;10.252;2023-01-19T01:07:13;0.70;99.90
3186;DHT22;1604;53.700;10.252;2023-01-19T01:10:19;0.70;99.90
3186;DHT22;1604;53.700;10.252;2023-01-19T01:13:21;0.70;99.90
3186;DHT22;1604;53.700;10.252;2023-01-19T01:16:23;0.70;99.90
3186;DHT22;1604;53.700;10.252;2023-01-19T01:19:25;0.70;99.90
3186;DHT22;1604;53.700;10.252;2023-01-19T01:22:30;0.80;99.90
3186;DHT22;1604;53.700;10.252;2023-01-19T01:25:36;0.90;99.90
3186;DHT22;1604;53.700;10.252;2023-01-19T01:28:38;0.90;99.90
3186;DHT22;1604;53.700;10.252;2023-01-19T01:31:43;0.90;99.90
3186;DHT22;1604;53.700;10.252;2023-01-19T01:34:48;0.90;99.90
3186;DHT22;1604;53.700;10.252;2023-01-19T01:37:50;0.90;99.90
3186;DHT22;1604;53.700;10.252;2023-01-19T01:40:53;1.00;99.90
3186;DHT22;1604;53.700;10.252;2023-01-19T01:43:56;1.00;99.90
3186;DHT22;1604;53.700;10.252;2023-01-19T01:47:00;1.00;99.90
3186;DHT22;1604;53.700;10.252;2023-01-19T01:50:06;1.00;99.90
3186;DHT22;1604;53.700;10.252;2023-01-19T01:53:11;1.00;99.90
3186;DHT22;1604;53.700;10.252;2023-01-19T01:56:20;1.00;99.90
3186;DHT22;1604;53.700;10.252;2023-01-19T01:59:25;1.00;99.90
3186;DHT22;1604;53.700;10.252;2023-01-19T02:02:30;1.10;99.90
3186;DHT22;1604;53.700;10.252;2023-01-19T02:05:51;1.10;99.90
3186;DHT22;1604;53.700;10.252;2023-01-19T02:09:01;1.10;99.90
3186;DHT22;1604;53.700;10.252;2023-01-19T02:12:23;1.10;99.90
3186;DHT22;1604;53.700;10.252;2023-01-19T02:15:42;1.10;99.90
3186;DHT22;1604;53.700;10.252;2023-01-19T02:18:45;1.10;99.90
3186;DHT22;1604;53.700;10.252;2023-01-19T02:21:53;1.20;99.90
3186;DHT22;1604;53.700;10.252;2023-01-19T02:24:57;1.20;99.90
3186;DHT22;1604;53.700;10.252;2023-01-19T02:28:00;1.20;99.90
3186;DHT22;1604;53.700;10.252;2023-01-19T02:31:02;1.30;99.90
3186;DHT22;1604;53.700;10.252;2023-01-19T02:34:05;1.20;99.90
3186;DHT22;1604;53.700;10.252;2023-01-19T02:37:11;1.20;99.90
3186;DHT22;1604;53.700;10.252;2023-01-19T02:40:17;1.30;99.90
3186;DHT22;1604;53.700;10.252;2023-01-19T02:43:21;1.30;99.90
3186;DHT22;1604;53.700;10.252;2023-01-19T02:46:24;1.30;99.90
3186;DHT22;1604;53.700;10.252;2023-01-19T02:49:27;1.30;99.90
3186;DHT22;1604;53.700;10.252;2023-01-19T02:52:30;1.30;99.90
3186;DHT22;1604;53.700;10.252;2023-01-19T02:55:33;1.30;99.90
3186;DHT22;1604;53.700;10.252;2023-01-19T02:58:41;1.30;99.90
3186;DHT22;1604;53.700;10.252;2023-01-19T03:05:36;1.20;99.90
3186;DHT22;1604;53.700;10.252;2023-01-19T03:08:49;1.20;99.90
3186;DHT22;1604;53.700;10.252;2023-01-19T03:12:01;1.40;99.90
3186;DHT22;1604;53.700;10.252;2023-01-19T03:15:12;1.40;99.90
3186;DHT22;1604;53.700;10.252;2023-01-19T03:18:20;1.40;99.90
3186;DHT22;1604;53.700;10.252;2023-01-19T03:21:26;1.40;99.90
3186;DHT22;1604;53.700;10.252;2023-01-19T03:24:30;1.40;99.90
3186;DHT22;1604;53.700;10.252;2023-01-19T03:27:37;1.50;99.90
3186;DHT22;1604;53.700;10.252;2023-01-19T03:30:43;1.50;99.90
3186;DHT22;1604;53.700;10.252;2023-01-19T03:33:48;1.50;99.90
3186;DHT22;1604;53.700;10.252;2023-01-19T03:36:52;1.50;99.90
3186;DHT22;1604;53.700;10.252;2023-01-19T03:39:55;1.50;99.90
3186;DHT22;1604;53.700;10.252;2023-01-19T03:42:59;1.50;99.90
3186;DHT22;1604;53.700;10.252;2023-01-19T03:46:02;1.70;99.90
3186;DHT22;1604;53.700;10.252;2023-01-19T03:49:05;1.70;99.90
3186;DHT22;1604;53.700;10.252;2023-01-19T03:52:08;1.60;99.90
3186;DHT22;1604;53.700;10.252;2023-01-19T03:55:10;1.60;99.90
3186;DHT22;1604;53.700;10.252;2023-01-19T03:58:13;1.60;99.90
3186;DHT22;1604;53.700;10.252;2023-01-19T04:01:16;1.60;99.90
3186;DHT22;1604;53.700;10.252;2023-01-19T04:04:21;1.70;99.90
3186;DHT22;1604;53.700;10.252;2023-01-19T04:07:23;1.60;99.90
3186;DHT22;1604;53.700;10.252;2023-01-19T04:10:25;1.70;99.90
3186;DHT22;1604;53.700;10.252;2023-01-19T04:13:28;1.70;99.90
3186;DHT22;1604;53.700;10.252;2023-01-19T04:16:30;1.70;99.90
3186;DHT22;1604;53.700;10.252;2023-01-19T04:19:32;1.70;99.90
3186;DHT22;1604;53.700;10.252;2023-01-19T04:22:34;1.70;99.90
3186;DHT22;1604;53.700;10.252;2023-01-19T04:25:38;1.60;99.90
3186;DHT22;1604;53.700;10.252;2023-01-19T04:28:41;1.70;99.90
3186;DHT22;1604;53.700;10.252;2023-01-19T04:31:45;1.70;99.90
3186;DHT22;1604;53.700;10.252;2023-01-19T04:34:47;1.70;99.90
3186;DHT22;1604;53.700;10.252;2023-01-19T04:37:51;1.70;99.90
3186;DHT22;1604;53.700;10.252;2023-01-19T04:40:53;1.70;99.90
3186;DHT22;1604;53.700;10.252;2023-01-19T04:43:57;1.80;99.90
3186;DHT22;1604;53.700;10.252;2023-01-19T04:47:02;1.80;99.90
3186;DHT22;1604;53.700;10.252;2023-01-19T04:50:08;1.80;99.90
3186;DHT22;1604;53.700;10.252;2023-01-19T04:53:11;1.80;99.90
3186;DHT22;1604;53.700;10.252;2023-01-19T04:56:16;1.90;99.90
3186;DHT22;1604;53.700;10.252;2023-01-19T04:59:19;1.80;99.90
3186;DHT22;1604;53.700;10.252;2023-01-19T05:02:21;1.90;99.90
3186;DHT22;1604;53.700;10.252;2023-01-19T05:05:23;1.90;99.90
3186;DHT22;1604;53.700;10.252;2023-01-19T05:08:26;1.90;99.90
3186;DHT22;1604;53.700;10.252;2023-01-19T05:11:28;1.80;99.90
3186;DHT22;1604;53.700;10.252;2023-01-19T05:14:31;1.80;99.90
3186;DHT22;1604;53.700;10.252;2023-01-19T05:17:33;1.80;99.90
3186;DHT22;1604;53.700;10.252;2023-01-19T05:20:35;1.80;99.90
3186;DHT22;1604;53.700;10.252;2023-01-19T05:23:37;1.80;99.90
3186;DHT22;1604;53.700;10.252;2023-01-19T05:26:39;1.80;99.90
3186;DHT22;1604;53.700;10.252;2023-01-19T05:29:42;1.80;99.90
3186;DHT22;1604;53.700;10.252;2023-01-19T05:32:44;1.80;99.90
3186;DHT22;1604;53.700;10.252;2023-01-19T05:35:48;1.80;99.90
3186;DHT22;1604;53.700;10.252;2023-01-19T05:38:50;1.80;99.90
3186;DHT22;1604;53.700;10.252;2023-01-19T05:41:52;1.80;99.90
3186;DHT22;1604;53.700;10.252;2023-01-19T05:44:55;1.80;99.90
3186;DHT22;1604;53.700;10.252;2023-01-19T05:47:59;1.80;99.90
3186;DHT22;1604;53.700;10.252;2023-01-19T05:51:01;1.90;99.90
3186;DHT22;1604;53.700;10.252;2023-01-19T05:54:04;1.90;99.90
3186;DHT22;1604;53.700;10.252;2023-01-19T05:57:07;1.90;99.90
3186;DHT22;1604;53.700;10.252;2023-01-19T06:00:12;2.00;99.90
3186;DHT22;1604;53.700;10.252;2023-01-19T06:03:14;1.90;99.90
3186;DHT22;1604;53.700;10.252;2023-01-19T06:06:16;1.90;99.90
3186;DHT22;1604;53.700;10.252;2023-01-19T06:09:18;1.90;99.90
3186;DHT22;1604;53.700;10.252;2023-01-19T06:12:20;1.90;99.90
3186;DHT22;1604;53.700;10.252;2023-01-19T06:15:23;1.90;99.90
3186;DHT22;1604;53.700;10.252;2023-01-19T06:18:25;1.90;99.90
3186;DHT22;1604;53.700;10.252;2023-01-19T06:21:27;2.00;99.90
3186;DHT22;1604;53.700;10.252;2023-01-19T06:24:29;2.10;99.90
3186;DHT22;1604;53.700;10.252;2023-01-19T06:27:31;1.90;99.90
3186;DHT22;1604;53.700;10.252;2023-01-19T06:30:34;1.90;99.90
3186;DHT22;1604;53.700;10.252;2023-01-19T06:33:36;1.90;99.90
3186;DHT22;1604;53.700;10.252;2023-01-19T06:36:38;2.00;99.90
3186;DHT22;1604;53.700;10.252;2023-01-19T06:39:39;1.90;99.90
3186;DHT22;1604;53.700;10.252;2023-01-19T06:42:41;1.90;99.90
3186;DHT22;1604;53.700;10.252;2023-01-19T06:45:47;1.90;99.90
3186;DHT22;1604;53.700;10.252;2023-01-19T06:48:49;1.90;99.90
3186;DHT22;1604;53.700;10.252;2023-01-19T06:51:51;1.90;99.90
3186;DHT22;1604;53.700;10.252;2023-01-19T06:54:56;1.90;99.90
3186;DHT22;1604;53.700;10.252;2023-01-19T06:57:58;1.80;99.90
3186;DHT22;1604;53.700;10.252;2023-01-19T07:01:03;1.80;99.90
3186;DHT22;1604;53.700;10.252;2023-01-19T07:04:05;1.80;99.90
3186;DHT22;1604;53.700;10.252;2023-01-19T07:07:09;1.70;99.90
3186;DHT22;1604;53.700;10.252;2023-01-19T07:10:11;1.80;99.90
3186;DHT22;1604;53.700;10.252;2023-01-19T07:13:15;1.80;99.90
3186;DHT22;1604;53.700;10.252;2023-01-19T07:16:18;1.80;99.90
3186;DHT22;1604;53.700;10.252;2023-01-19T07:19:20;1.80;99.90
3186;DHT22;1604;53.700;10.252;2023-01-19T07:22:22;1.80;99.90
3186;DHT22;1604;53.700;10.252;2023-01-19T07:25:24;1.80;99.90
3186;DHT22;1604;53.700;10.252;2023-01-19T07:28:26;1.80;99.90
3186;DHT22;1604;53.700;10.252;2023-01-19T07:31:30;1.70;99.90
3186;DHT22;1604;53.700;10.252;2023-01-19T07:34:35;1.80;99.90
3186;DHT22;1604;53.700;10.252;2023-01-19T07:37:38;1.80;99.90
3186;DHT22;1604;53.700;10.252;2023-01-19T07:40:40;1.80;99.90
3186;DHT22;1604;53.700;10.252;2023-01-19T07:43:42;1.80;99.90
3186;DHT22;1604;53.700;10.252;2023-01-19T07:46:45;1.80;99.90
3186;DHT22;1604;53.700;10.252;2023-01-19T07:49:47;1.70;99.90
3186;DHT22;1604;53.700;10.252;2023-01-19T07:52:49;1.70;99.90
3186;DHT22;1604;53.700;10.252;2023-01-19T07:55:54;1.80;99.90
3186;DHT22;1604;53.700;10.252;2023-01-19T07:58:57;1.80;99.90
3186;DHT22;1604;53.700;10.252;2023-01-19T08:02:00;1.80;99.90
3186;DHT22;1604;53.700;10.252;2023-01-19T08:05:02;1.80;99.90
3186;DHT22;1604;53.700;10.252;2023-01-19T08:08:04;1.80;99.90
3186;DHT22;1604;53.700;10.252;2023-01-19T08:11:08;1.90;99.90
3186;DHT22;1604;53.700;10.252;2023-01-19T08:14:10;1.80;99.90
3186;DHT22;1604;53.700;10.252;2023-01-19T08:17:15;1.80;99.90
3186;DHT22;1604;53.700;10.252;2023-01-19T08:20:18;1.90;99.90
3186;DHT22;1604;53.700;10.252;2023-01-19T08:23:20;1.90;99.90
3186;DHT22;1604;53.700;10.252;2023-01-19T08:26:27;1.90;99.90
3186;DHT22;1604;53.700;10.252;2023-01-19T08:29:29;1.90;99.90
3186;DHT22;1604;53.700;10.252;2023-01-19T08:32:33;2.00;99.90
3186;DHT22;1604;53.700;10.252;2023-01-19T08:35:36;2.00;99.90
3186;DHT22;1604;53.700;10.252;2023-01-19T08:38:43;2.00;99.90
3186;DHT22;1604;53.700;10.252;2023-01-19T08:41:46;2.10;99.90
3186;DHT22;1604;53.700;10.252;2023-01-19T08:44:48;2.00;99.90
3186;DHT22;1604;53.700;10.252;2023-01-19T08:47:51;2.00;99.90
3186;DHT22;1604;53.700;10.252;2023-01-19T08:50:56;2.10;99.90
3186;DHT22;1604;53.700;10.252;2023-01-19T08:54:03;2.10;99.90
3186;DHT22;1604;53.700;10.252;2023-01-19T08:57:05;2.10;99.90
3186;DHT22;1604;53.700;10.252;2023-01-19T09:00:11;2.10;99.90
3186;DHT22;1604;53.700;10.252;2023-01-19T09:03:17;2.10;99.90
3186;DHT22;1604;53.700;10.252;2023-01-19T09:06:22;2.10;99.90
3186;DHT22;1604;53.700;10.252;2023-01-19T09:09:28;2.10;99.90
3186;DHT22;1604;53.700;10.252;2023-01-19T09:12:33;2.10;99.90
3186;DHT22;1604;53.700;10.252;2023-01-19T09:15:35;2.10;99.90
3186;DHT22;1604;53.700;10.252;2023-01-19T09:18:39;2.10;99.90
3186;DHT22;1604;53.700;10.252;2023-01-19T09:21:41;2.10;99.90
3186;DHT22;1604;53.700;10.252;2023-01-19T09:24:43;2.10;99.90
3186;DHT22;1604;53.700;10.252;2023-01-19T09:27:44;2.10;99.90
3186;DHT22;1604;53.700;10.252;2023-01-19T09:30:46;2.10;99.90
3186;DHT22;1604;53.700;10.252;2023-01-19T09:33:50;2.10;99.90
3186;DHT22;1604;53.700;10.252;2023-01-19T09:36:52;2.10;99.90
3186;DHT22;1604;53.700;10.252;2023-01-19T09:39:55;2.10;99.90
3186;DHT22;1604;53.700;10.252;2023-01-19T09:43:11;2.10;99.90
3186;DHT22;1604;53.700;10.252;2023-01-19T09:46:16;2.10;99.90
3186;DHT22;1604;53.700;10.252;2023-01-19T09:49:26;2.10;99.90
3186;DHT22;1604;53.700;10.252;2023-01-19T09:52:33;2.10;99.90
3186;DHT22;1604;53.700;10.252;2023-01-19T09:55:37;2.10;99.90
3186;DHT22;1604;53.700;10.252;2023-01-19T09:58:44;2.10;99.90
3186;DHT22;1604;53.700;10.252;2023-01-19T10:02:01;2.10;99.90
3186;DHT22;1604;53.700;10.252;2023-01-19T10:05:20;2.10;99.90
3186;DHT22;1604;53.700;10.252;2023-01-19T10:08:29;2.10;99.90
3186;DHT22;1604;53.700;10.252;2023-01-19T10:11:39;2.20;99.90
3186;DHT22;1604;53.700;10.252;2023-01-19T10:14:49;2.10;99.90
3186;DHT22;1604;53.700;10.252;2023-01-19T10:18:03;2.10;99.90
3186;DHT22;1604;53.700;10.252;2023-01-19T10:21:13;2.10;99.90
3186;DHT22;1604;53.700;10.252;2023-01-19T10:24:18;2.10;99.90
3186;DHT22;1604;53.700;10.252;2023-01-19T10:27:24;2.20;99.90
3186;DHT22;1604;53.700;10.252;2023-01-19T10:30:28;2.30;99.90
3186;DHT22;1604;53.700;10.252;2023-01-19T10:33:32;2.30;99.90
3186;DHT22;1604;53.700;10.252;2023-01-19T10:36:37;2.40;99.90
3186;DHT22;1604;53.700;10.252;2023-01-19T10:39:41;2.40;99.90
3186;DHT22;1604;53.700;10.252;2023-01-19T10:42:43;2.40;99.90
3186;DHT22;1604;53.700;10.252;2023-01-19T10:45:48;2.50;99.90
3186;DHT22;1604;53.700;10.252;2023-01-19T10:48:54;2.50;99.90
3186;DHT22;1604;53.700;10.252;2023-01-19T10:51:58;2.50;99.90
3186;DHT22;1604;53.700;10.252;2023-01-19T10:55:02;2.60;99.90
3186;DHT22;1604;53.700;10.252;2023-01-19T10:58:05;2.60;99.90
3186;DHT22;1604;53.700;10.252;2023-01-19T11:01:16;2.70;99.90
3186;DHT22;1604;53.700;10.252;2023-01-19T11:04:27;2.80;99.90
3186;DHT22;1604;53.700;10.252;2023-01-19T11:07:32;2.90;99.90
3186;DHT22;1604;53.700;10.252;2023-01-19T11:10:34;3.00;99.90
3186;DHT22;1604;53.700;10.252;2023-01-19T11:13:36;3.00;99.90
3186;DHT22;1604;53.700;10.252;2023-01-19T11:16:39;3.10;99.90
3186;DHT22;1604;53.700;10.252;2023-01-19T11:19:42;3.10;99.90
3186;DHT22;1604;53.700;10.252;2023-01-19T11:22:45;3.10;99.90
3186;DHT22;1604;53.700;10.252;2023-01-19T11:25:49;3.10;99.90
3186;DHT22;1604;53.700;10.252;2023-01-19T11:28:54;3.10;99.90
3186;DHT22;1604;53.700;10.252;2023-01-19T11:32:10;3.10;99.90
3186;DHT22;1604;53.700;10.252;2023-01-19T11:35:35;3.10;99.90
3186;DHT22;1604;53.700;10.252;2023-01-19T11:38:44;3.20;99.90
3186;DHT22;1604;53.700;10.252;2023-01-19T11:41:50;3.20;99.90
3186;DHT22;1604;53.700;10.252;2023-01-19T11:44:58;3.20;99.90
3186;DHT22;1604;53.700;10.252;2023-01-19T11:48:03;3.20;99.90
3186;DHT22;1604;53.700;10.252;2023-01-19T11:51:12;3.20;99.90
3186;DHT22;1604;53.700;10.252;2023-01-19T11:54:23;3.20;99.90
3186;DHT22;1604;53.700;10.252;2023-01-19T11:57:27;3.20;99.90
3186;DHT22;1604;53.700;10.252;2023-01-19T12:00:35;3.20;99.90
3186;DHT22;1604;53.700;10.252;2023-01-19T12:03:40;3.20;99.90
3186;DHT22;1604;53.700;10.252;2023-01-19T12:06:48;3.20;99.90
3186;DHT22;1604;53.700;10.252;2023-01-19T12:09:55;3.20;99.90
3186;DHT22;1604;53.700;10.252;2023-01-19T12:12:58;3.10;99.90
3186;DHT22;1604;53.700;10.252;2023-01-19T12:16:04;3.10;99.90
3186;DHT22;1604;53.700;10.252;2023-01-19T12:19:13;3.10;99.90
3186;DHT22;1604;53.700;10.252;2023-01-19T12:22:16;3.00;99.90
3186;DHT22;1604;53.700;10.252;2023-01-19T12:25:24;3.00;99.90
3186;DHT22;1604;53.700;10.252;2023-01-19T12:28:32;3.00;99.90
3186;DHT22;1604;53.700;10.252;2023-01-19T12:31:38;3.00;99.90
3186;DHT22;1604;53.700;10.252;2023-01-19T12:34:43;3.10;99.90
3186;DHT22;1604;53.700;10.252;2023-01-19T12:37:46;3.00;99.90
3186;DHT22;1604;53.700;10.252;2023-01-19T12:40:49;3.00;99.90
3186;DHT22;1604;53.700;10.252;2023-01-19T12:44:34;3.10;99.90
3186;DHT22;1604;53.700;10.252;2023-01-19T12:47:36;3.10;99.90
3186;DHT22;1604;53.700;10.252;2023-01-19T12:50:38;3.10;99.90
3186;DHT22;1604;53.700;10.252;2023-01-19T12:53:50;3.20;99.90
3186;DHT22;1604;53.700;10.252;2023-01-19T12:57:01;3.20;99.90
3186;DHT22;1604;53.700;10.252;2023-01-19T13:00:28;3.30;99.90
3186;DHT22;1604;53.700;10.252;2023-01-19T13:03:57;3.30;99.90
3186;DHT22;1604;53.700;10.252;2023-01-19T13:07:09;3.40;99.90
3186;DHT22;1604;53.700;10.252;2023-01-19T13:17:45;3.40;99.90
3186;DHT22;1604;53.700;10.252;2023-01-19T13:20:52;3.40;99.90
3186;DHT22;1604;53.700;10.252;2023-01-19T13:23:58;3.40;99.90
3186;DHT22;1604;53.700;10.252;2023-01-19T13:27:03;3.40;99.90
3186;DHT22;1604;53.700;10.252;2023-01-19T13:30:10;3.40;99.90
3186;DHT22;1604;53.700;10.252;2023-01-19T13:33:18;3.40;99.90
3186;DHT22;1604;53.700;10.252;2023-01-19T13:36:28;3.50;99.90
3186;DHT22;1604;53.700;10.252;2023-01-19T13:39:36;3.40;99.90
3186;DHT22;1604;53.700;10.252;2023-01-19T13:42:42;3.40;99.90
3186;DHT22;1604;53.700;10.252;2023-01-19T13:45:47;3.40;99.90
3186;DHT22;1604;53.700;10.252;2023-01-19T13:48:56;3.40;99.90
3186;DHT22;1604;53.700;10.252;2023-01-19T13:52:20;3.30;99.90
3186;DHT22;1604;53.700;10.252;2023-01-19T13:55:23;3.30;99.90
3186;DHT22;1604;53.700;10.252;2023-01-19T13:58:25;3.30;99.90
3186;DHT22;1604;53.700;10.252;2023-01-19T14:01:29;3.20;99.90
3186;DHT22;1604;53.700;10.252;2023-01-19T14:04:34;3.20;99.90
3186;DHT22;1604;53.700;10.252;2023-01-19T14:07:37;3.20;99.90
3186;DHT22;1604;53.700;10.252;2023-01-19T14:10:44;3.20;99.90
3186;DHT22;1604;53.700;10.252;2023-01-19T14:13:46;3.20;99.90
3186;DHT22;1604;53.700;10.252;2023-01-19T14:16:52;3.10;99.90
3186;DHT22;1604;53.700;10.252;2023-01-19T14:19:56;3.20;99.90
3186;DHT22;1604;53.700;10.252;2023-01-19T14:23:00;3.10;99.90
3186;DHT22;1604;53.700;10.252;2023-01-19T14:26:05;3.20;99.90
3186;DHT22;1604;53.700;10.252;2023-01-19T14:29:25;3.20;99.90
3186;DHT22;1604;53.700;10.252;2023-01-19T14:32:27;3.20;99.90
3186;DHT22;1604;53.700;10.252;2023-01-19T14:35:30;3.20;99.90
3186;DHT22;1604;53.700;10.252;2023-01-19T14:38:34;3.20;99.90
3186;DHT22;1604;53.700;10.252;2023-01-19T14:41:44;3.20;99.90
3186;DHT22;1604;53.700;10.252;2023-01-19T14:44:50;3.20;99.90
3186;DHT22;1604;53.700;10.252;2023-01-19T14:47:55;3.20;99.90
3186;DHT22;1604;53.700;10.252;2023-01-19T14:51:03;3.20;99.90
3186;DHT22;1604;53.700;10.252;2023-01-19T14:54:14;3.20;99.90
3186;DHT22;1604;53.700;10.252;2023-01-19T14:57:19;3.20;99.90
3186;DHT22;1604;53.700;10.252;2023-01-19T15:00:25;3.20;99.90
3186;DHT22;1604;53.700;10.252;2023-01-19T15:03:27;3.20;99.90
3186;DHT22;1604;53.700;10.252;2023-01-19T15:06:38;3.20;99.90
3186;DHT22;1604;53.700;10.252;2023-01-19T15:09:43;3.20;99.90
3186;DHT22;1604;53.700;10.252;2023-01-19T15:12:45;3.20;99.90
3186;DHT22;1604;53.700;10.252;2023-01-19T15:15:47;3.20;99.90
3186;DHT22;1604;53.700;10.252;2023-01-19T15:18:50;3.20;99.90
3186;DHT22;1604;53.700;10.252;2023-01-19T15:21:53;3.20;99.90
3186;DHT22;1604;53.700;10.252;2023-01-19T15:24:55;3.30;99.90
3186;DHT22;1604;53.700;10.252;2023-01-19T15:28:00;3.30;99.90
3186;DHT22;1604;53.700;10.252;2023-01-19T15:31:04;3.30;99.90
3186;DHT22;1604;53.700;10.252;2023-01-19T15:34:08;3.30;99.90
3186;DHT22;1604;53.700;10.252;2023-01-19T15:37:12;3.30;99.90
3186;DHT22;1604;53.700;10.252;2023-01-19T15:40:14;3.30;99.90
3186;DHT22;1604;53.700;10.252;2023-01-19T15:43:19;3.20;99.90
3186;DHT22;1604;53.700;10.252;2023-01-19T15:46:22;3.20;99.90
3186;DHT22;1604;53.700;10.252;2023-01-19T15:49:25;3.20;99.90
3186;DHT22;1604;53.700;10.252;2023-01-19T15:52:28;3.20;99.90
3186;DHT22;1604;53.700;10.252;2023-01-19T15:55:30;3.20;99.90
3186;DHT22;1604;53.700;10.252;2023-01-19T15:58:32;3.20;99.90
3186;DHT22;1604;53.700;10.252;2023-01-19T16:01:34;3.10;99.90
3186;DHT22;1604;53.700;10.252;2023-01-19T16:04:36;3.10;99.90
3186;DHT22;1604;53.700;10.252;2023-01-19T16:07:39;3.10;99.90
3186;DHT22;1604;53.700;10.252;2023-01-19T16:10:42;3.00;99.90
3186;DHT22;1604;53.700;10.252;2023-01-19T16:13:44;2.90;99.90
3186;DHT22;1604;53.700;10.252;2023-01-19T16:16:47;2.90;99.90
3186;DHT22;1604;53.700;10.252;2023-01-19T16:19:48;2.90;99.90
3186;DHT22;1604;53.700;10.252;2023-01-19T16:22:52;2.90;99.90
3186;DHT22;1604;53.700;10.252;2023-01-19T16:25:55;2.80;99.90
3186;DHT22;1604;53.700;10.252;2023-01-19T16:28:59;2.80;99.90
3186;DHT22;1604;53.700;10.252;2023-01-19T16:32:01;2.80;99.90
3186;DHT22;1604;53.700;10.252;2023-01-19T16:35:07;2.70;99.90
3186;DHT22;1604;53.700;10.252;2023-01-19T16:38:13;2.70;99.90
3186;DHT22;1604;53.700;10.252;2023-01-19T16:41:18;2.70;99.90
3186;DHT22;1604;53.700;10.252;2023-01-19T16:44:20;2.70;99.90
3186;DHT22;1604;53.700;10.252;2023-01-19T16:47:22;2.70;99.90
3186;DHT22;1604;53.700;10.252;2023-01-19T16:50:24;2.70;99.90
3186;DHT22;1604;53.700;10.252;2023-01-19T16:53:30;2.70;99.90
3186;DHT22;1604;53.700;10.252;2023-01-19T16:56:33;2.70;99.90
3186;DHT22;1604;53.700;10.252;2023-01-19T16:59:38;2.70;99.90
3186;DHT22;1604;53.700;10.252;2023-01-19T17:02:40;2.60;99.90
3186;DHT22;1604;53.700;10.252;2023-01-19T17:05:48;2.60;99.90
3186;DHT22;1604;53.700;10.252;2023-01-19T17:08:51;2.50;99.90
3186;DHT22;1604;53.700;10.252;2023-01-19T17:11:54;2.50;99.90
3186;DHT22;1604;53.700;10.252;2023-01-19T17:14:57;2.50;99.90
3186;DHT22;1604;53.700;10.252;2023-01-19T17:17:59;2.40;99.90
3186;DHT22;1604;53.700;10.252;2023-01-19T17:21:03;2.30;99.90
3186;DHT22;1604;53.700;10.252;2023-01-19T17:24:07;2.30;99.90
3186;DHT22;1604;53.700;10.252;2023-01-19T17:27:09;2.30;99.90
3186;DHT22;1604;53.700;10.252;2023-01-19T17:30:11;2.20;99.90
3186;DHT22;1604;53.700;10.252;2023-01-19T17:33:13;2.20;99.90
3186;DHT22;1604;53.700;10.252;2023-01-19T17:36:18;2.10;99.90
3186;DHT22;1604;53.700;10.252;2023-01-19T17:39:23;2.10;99.90
3186;DHT22;1604;53.700;10.252;2023-01-19T17:42:25;2.00;99.90
3186;DHT22;1604;53.700;10.252;2023-01-19T17:45:27;2.00;99.90
3186;DHT22;1604;53.700;10.252;2023-01-19T17:48:29;1.90;99.90
3186;DHT22;1604;53.700;10.252;2023-01-19T17:51:31;1.90;99.90
3186;DHT22;1604;53.700;10.252;2023-01-19T17:54:34;1.90;99.90
3186;DHT22;1604;53.700;10.252;2023-01-19T17:57:36;1.80;99.90
3186;DHT22;1604;53.700;10.252;2023-01-19T18:00:38;1.80;99.90
3186;DHT22;1604;53.700;10.252;2023-01-19T18:03:40;1.70;99.90
3186;DHT22;1604;53.700;10.252;2023-01-19T18:06:42;1.70;99.90
3186;DHT22;1604;53.700;10.252;2023-01-19T18:09:48;1.60;99.90
3186;DHT22;1604;53.700;10.252;2023-01-19T18:12:51;1.60;99.90
3186;DHT22;1604;53.700;10.252;2023-01-19T18:15:57;1.60;99.90
3186;DHT22;1604;53.700;10.252;2023-01-19T18:19:00;1.60;99.90
3186;DHT22;1604;53.700;10.252;2023-01-19T18:22:02;1.60;99.90
3186;DHT22;1604;53.700;10.252;2023-01-19T18:25:06;1.50;99.90
3186;DHT22;1604;53.700;10.252;2023-01-19T18:28:08;1.40;99.90
3186;DHT22;1604;53.700;10.252;2023-01-19T18:31:12;1.40;99.90
3186;DHT22;1604;53.700;10.252;2023-01-19T18:34:14;1.40;99.90
3186;DHT22;1604;53.700;10.252;2023-01-19T18:37:16;1.40;99.90
3186;DHT22;1604;53.700;10.252;2023-01-19T18:40:20;1.30;99.90
3186;DHT22;1604;53.700;10.252;2023-01-19T18:43:21;1.30;99.90
3186;DHT22;1604;53.700;10.252;2023-01-19T18:46:23;1.30;99.90
3186;DHT22;1604;53.700;10.252;2023-01-19T18:49:26;1.20;99.90
3186;DHT22;1604;53.700;10.252;2023-01-19T18:52:28;1.20;99.90
3186;DHT22;1604;53.700;10.252;2023-01-19T18:55:33;1.20;99.90
3186;DHT22;1604;53.700;10.252;2023-01-19T18:58:36;1.20;99.90
3186;DHT22;1604;53.700;10.252;2023-01-19T19:01:39;1.20;99.90
3186;DHT22;1604;53.700;10.252;2023-01-19T19:04:41;1.10;99.90
3186;DHT22;1604;53.700;10.252;2023-01-19T19:07:43;1.10;99.90
3186;DHT22;1604;53.700;10.252;2023-01-19T19:10:47;1.10;99.90
3186;DHT22;1604;53.700;10.252;2023-01-19T19:13:51;1.00;99.90
3186;DHT22;1604;53.700;10.252;2023-01-19T19:16:53;1.00;99.90
3186;DHT22;1604;53.700;10.252;2023-01-19T19:19:55;1.00;99.90
3186;DHT22;1604;53.700;10.252;2023-01-19T19:22:57;0.90;99.90
3186;DHT22;1604;53.700;10.252;2023-01-19T19:26:05;0.90;99.90
3186;DHT22;1604;53.700;10.252;2023-01-19T19:29:07;0.90;99.90
3186;DHT22;1604;53.700;10.252;2023-01-19T19:32:09;0.80;99.90
3186;DHT22;1604;53.700;10.252;2023-01-19T19:35:11;0.80;99.90
3186;DHT22;1604;53.700;10.252;2023-01-19T19:38:14;0.80;99.90
3186;DHT22;1604;53.700;10.252;2023-01-19T19:41:20;0.70;99.90
3186;DHT22;1604;53.700;10.252;2023-01-19T19:44:22;0.70;99.90
3186;DHT22;1604;53.700;10.252;2023-01-19T19:47:24;0.80;99.90
3186;DHT22;1604;53.700;10.252;2023-01-19T19:50:28;0.80;99.90
3186;DHT22;1604;53.700;10.252;2023-01-19T19:53:30;0.80;99.90
3186;DHT22;1604;53.700;10.252;2023-01-19T19:56:36;0.80;99.90
3186;DHT22;1604;53.700;10.252;2023-01-19T19:59:38;0.80;99.90
3186;DHT22;1604;53.700;10.252;2023-01-19T20:02:40;0.80;99.90
3186;DHT22;1604;53.700;10.252;2023-01-19T20:05:42;0.80;99.90
3186;DHT22;1604;53.700;10.252;2023-01-19T20:08:44;0.90;99.90
3186;DHT22;1604;53.700;10.252;2023-01-19T20:11:47;0.90;99.90
3186;DHT22;1604;53.700;10.252;2023-01-19T20:14:49;1.00;99.90